Time;durP1;ratioP1;P1;durP2;ratioP2;P2;SDS_P1;SDS_P2;PMS_P1;PMS_P2;Temp;Humidity;BMP_temperature;BMP_pressure;BME280_temperature;BME280_humidity;BME280_pressure;Samples;Min_cycle;Max_cycle;Signal;HPM_P1;HPM_P2
2023/05/11 00:00:45;;;;;;;23.80;13.60;;;;;;;5.32;66.16;97370.84;108408;1254;100231;-72
2023/05/11 00:03:15;;;;;;;26.50;12.50;;;;;;;5.28;66.32;97369.10;108861;1253;101270;-72
2023/05/11 00:05:48;;;;;;;25.90;12.80;;;;;;;5.27;66.34;97367.80;108811;1254;100059;-72
2023/05/11 00:08:16;;;;;;;25.30;10.40;;;;;;;5.26;66.45;97373.13;108550;1257;93739;-72
2023/05/11 00:10:48;;;;;;;21.80;10.90;;;;;;;5.20;66.41;97373.44;108785;1253;93584;-74
2023/05/11 00:13:16;;;;;;;16.40;9.00;;;;;;;5.18;66.51;97375.34;108866;1253;100367;-72
2023/05/11 00:15:44;;;;;;;17.60;10.00;;;;;;;5.19;66.71;97375.06;108784;1254;101773;-77
2023/05/11 00:18:12;;;;;;;16.60;9.50;;;;;;;5.21;66.87;97373.33;108798;1254;100027;-72
2023/05/11 00:20:40;;;;;;;15.70;9.80;;;;;;;5.25;66.92;97368.45;108768;1254;93608;-72
2023/05/11 00:23:08;;;;;;;15.50;8.40;;;;;;;5.25;66.88;97367.71;108542;1254;93991;-71
2023/05/11 00:25:38;;;;;;;14.80;8.80;;;;;;;5.23;66.79;97369.02;108826;1255;100911;-72
2023/05/11 00:28:06;;;;;;;11.90;8.20;;;;;;;5.23;66.92;97367.36;108820;1253;101406;-72
2023/05/11 00:30:34;;;;;;;11.40;7.30;;;;;;;5.23;66.73;97367.22;108785;1254;99969;-77
2023/05/11 00:33:02;;;;;;;10.30;6.50;;;;;;;5.21;66.67;97368.17;108796;1254;93653;-72
2023/05/11 00:35:31;;;;;;;9.60;7.10;;;;;;;5.19;66.81;97367.73;108839;1254;93548;-74
2023/05/11 00:37:59;;;;;;;9.50;7.10;;;;;;;5.14;66.96;97365.99;108805;1254;100452;-74
2023/05/11 00:40:27;;;;;;;10.40;6.10;;;;;;;5.09;67.03;97366.06;108866;1254;101333;-72
2023/05/11 00:42:55;;;;;;;8.80;6.20;;;;;;;5.07;66.94;97361.59;108753;1253;100139;-72
2023/05/11 00:45:24;;;;;;;8.40;5.50;;;;;;;5.05;67.00;97363.25;108775;1254;93758;-74
2023/05/11 00:47:52;;;;;;;8.80;6.10;;;;;;;5.02;66.92;97359.36;108832;1251;93901;-74
2023/05/11 00:50:21;;;;;;;7.90;6.00;;;;;;;4.97;66.89;97358.11;108844;1251;101150;-72
2023/05/11 00:52:49;;;;;;;10.70;6.70;;;;;;;4.93;67.01;97357.30;108859;1251;101612;-72
2023/05/11 00:55:20;;;;;;;7.20;5.70;;;;;;;4.91;67.10;97358.20;108457;1254;99699;-73
2023/05/11 00:57:48;;;;;;;9.70;6.10;;;;;;;4.89;67.27;97358.37;108709;1251;94226;-72
2023/05/11 01:00:16;;;;;;;7.60;5.80;;;;;;;4.88;67.35;97360.98;108804;1251;94824;-72
2023/05/11 01:02:45;;;;;;;7.00;5.60;;;;;;;4.86;67.43;97359.22;108781;1251;102183;-71
2023/05/11 01:05:13;;;;;;;8.90;6.10;;;;;;;4.84;67.25;97355.79;108862;1251;101344;-73
2023/05/11 01:07:51;;;;;;;9.40;7.00;;;;;;;4.79;67.14;97356.13;108837;1251;99864;-71
2023/05/11 01:10:34;;;;;;;9.90;7.50;;;;;;;4.74;67.28;97358.81;108735;1251;94494;-75
2023/05/11 01:13:05;;;;;;;13.00;8.60;;;;;;;4.68;67.31;97358.27;108816;1251;94591;-72
2023/05/11 01:15:41;;;;;;;14.10;8.60;;;;;;;4.64;67.30;97360.85;108854;1251;102623;-71
2023/05/11 01:18:21;;;;;;;18.90;12.30;;;;;;;4.60;67.39;97361.30;108826;1251;101067;-73
2023/05/11 01:20:53;;;;;;;22.00;16.10;;;;;;;4.54;67.53;97363.61;108797;1251;99718;-73
2023/05/11 01:23:43;;;;;;;18.70;14.00;;;;;;;4.48;67.65;97362.91;108767;1251;94183;-72
2023/05/11 01:26:35;;;;;;;16.70;9.60;;;;;;;4.46;67.75;97361.92;108839;1251;94584;-74
2023/05/11 01:29:24;;;;;;;9.00;7.10;;;;;;;4.44;67.84;97361.92;108788;1251;102176;-72
2023/05/11 01:31:55;;;;;;;9.00;7.50;;;;;;;4.44;67.84;97368.40;108876;1251;101341;-72
2023/05/11 01:34:26;;;;;;;11.90;7.40;;;;;;;4.38;67.85;97366.31;108554;1253;99705;-72
2023/05/11 01:37:10;;;;;;;9.40;7.50;;;;;;;4.33;68.01;97364.61;108731;1251;94217;-73
2023/05/11 01:39:46;;;;;;;13.30;11.30;;;;;;;4.31;68.16;97364.15;108823;1251;94531;-72
2023/05/11 01:42:15;;;;;;;17.10;11.40;;;;;;;4.30;68.16;97364.45;108771;1251;102771;-72
2023/05/11 01:44:49;;;;;;;17.60;11.10;;;;;;;4.29;68.15;97365.83;108811;1251;101192;-72
2023/05/11 01:47:18;;;;;;;14.50;9.60;;;;;;;4.26;68.03;97369.13;108782;1251;99028;-72
2023/05/11 01:49:47;;;;;;;11.70;7.30;;;;;;;4.25;68.04;97368.36;108350;1251;94707;-78
2023/05/11 01:52:18;;;;;;;11.70;8.70;;;;;;;4.23;68.09;97372.92;108799;1251;94549;-77
2023/05/11 01:54:49;;;;;;;13.20;9.70;;;;;;;4.19;68.03;97372.05;108839;1251;102359;-70
2023/05/11 01:57:18;;;;;;;11.20;8.90;;;;;;;4.17;68.04;97373.88;108646;1251;101184;-72
2023/05/11 01:59:48;;;;;;;14.60;8.40;;;;;;;4.13;68.02;97375.80;108822;1251;98999;-72
2023/05/11 02:02:18;;;;;;;10.40;5.90;;;;;;;4.10;68.05;97381.85;108777;1251;94266;-72
2023/05/11 02:04:47;;;;;;;10.10;6.10;;;;;;;4.06;68.14;97381.04;108801;1251;96111;-72
2023/05/11 02:07:17;;;;;;;9.20;5.90;;;;;;;4.03;68.15;97381.56;108604;1251;102370;-72
2023/05/11 02:09:48;;;;;;;8.10;5.10;;;;;;;3.98;68.14;97384.71;108499;1251;101894;-76
2023/05/11 02:12:19;;;;;;;7.90;5.20;;;;;;;3.96;68.25;97386.80;108824;1251;100126;-72
2023/05/11 02:14:48;;;;;;;7.30;5.80;;;;;;;3.92;68.23;97386.30;108799;1251;94456;-76
2023/05/11 02:17:18;;;;;;;7.70;5.50;;;;;;;3.89;68.25;97386.23;108831;1251;94363;-71
2023/05/11 02:19:48;;;;;;;6.60;5.20;;;;;;;3.87;68.35;97384.80;108771;1251;102286;-73
2023/05/11 02:22:16;;;;;;;8.90;5.60;;;;;;;3.83;68.34;97384.29;108852;1251;101472;-72
2023/05/11 02:24:45;;;;;;;8.50;6.20;;;;;;;3.81;68.47;97382.35;108797;1251;99997;-70
2023/05/11 02:27:13;;;;;;;8.20;6.10;;;;;;;3.80;68.53;97383.39;108791;1251;94391;-72
2023/05/11 02:29:41;;;;;;;10.00;6.60;;;;;;;3.77;68.59;97386.40;108836;1250;94257;-72
2023/05/11 02:32:15;;;;;;;8.60;6.50;;;;;;;3.75;68.66;97385.27;108847;1251;102094;-73
2023/05/11 02:34:52;;;;;;;7.00;6.10;;;;;;;3.71;68.63;97389.09;108838;1251;101409;-72
2023/05/11 02:37:24;;;;;;;7.40;5.60;;;;;;;3.65;68.54;97390.95;108776;1251;100107;-74
2023/05/11 02:39:58;;;;;;;7.30;5.60;;;;;;;3.61;68.56;97384.85;108776;1251;94198;-72
2023/05/11 02:42:29;;;;;;;5.60;4.80;;;;;;;3.55;68.67;97383.62;108850;1251;94648;-72
2023/05/11 02:45:17;;;;;;;7.90;5.40;;;;;;;3.52;68.77;97394.31;108742;1251;101877;-77
2023/05/11 02:47:51;;;;;;;7.60;5.30;;;;;;;3.51;68.77;97390.65;108593;1251;100923;-71
2023/05/11 02:50:23;;;;;;;8.50;5.40;;;;;;;3.51;68.72;97391.29;108814;1251;99892;-76
2023/05/11 02:52:54;;;;;;;9.70;5.80;;;;;;;3.48;68.74;97388.01;108804;1251;94414;-72
2023/05/11 02:55:24;;;;;;;8.30;5.20;;;;;;;3.45;68.75;97391.37;108807;1251;94274;-73
2023/05/11 02:57:52;;;;;;;8.40;5.90;;;;;;;3.42;68.77;97391.70;108416;1251;103011;-76
2023/05/11 03:00:20;;;;;;;6.30;5.00;;;;;;;3.39;68.89;97396.34;108481;1251;101437;-72
2023/05/11 03:02:48;;;;;;;8.40;5.60;;;;;;;3.36;69.07;97393.48;108747;1251;99782;-74
2023/05/11 03:05:17;;;;;;;7.80;5.40;;;;;;;3.32;69.07;97394.73;108787;1251;94882;-72
2023/05/11 03:07:45;;;;;;;8.10;6.10;;;;;;;3.27;69.12;97396.55;108689;1251;94576;-73
2023/05/11 03:10:14;;;;;;;7.10;5.70;;;;;;;3.25;69.29;97396.73;108802;1251;102142;-72
2023/05/11 03:12:43;;;;;;;8.80;6.20;;;;;;;3.24;69.47;97398.10;108815;1251;101084;-75
2023/05/11 03:15:12;;;;;;;6.90;5.80;;;;;;;3.23;69.46;97399.77;108771;1251;99813;-73
2023/05/11 03:17:41;;;;;;;7.30;5.90;;;;;;;3.22;69.35;97401.54;108839;1251;94214;-75
2023/05/11 03:20:11;;;;;;;9.30;5.90;;;;;;;3.20;69.36;97402.79;108856;1251;94651;-74
2023/05/11 03:22:39;;;;;;;8.00;6.40;;;;;;;3.17;69.45;97399.55;108580;1251;103286;-72
2023/05/11 03:25:09;;;;;;;8.20;5.70;;;;;;;3.13;69.40;97397.80;108804;1251;101429;-71
2023/05/11 03:27:39;;;;;;;11.30;6.00;;;;;;;3.11;69.45;97398.66;108757;1251;99973;-76
2023/05/11 03:30:12;;;;;;;8.70;6.10;;;;;;;3.09;69.40;97401.15;108419;1251;94421;-76
2023/05/11 03:32:40;;;;;;;10.00;6.60;;;;;;;3.05;69.48;97401.94;108729;1251;94767;-71
2023/05/11 03:35:08;;;;;;;12.70;6.70;;;;;;;3.00;69.72;97401.98;108777;1251;111020;-76
2023/05/11 03:37:38;;;;;;;12.90;6.40;;;;;;;2.99;69.83;97405.08;108815;1251;101058;-74
2023/05/11 03:40:08;;;;;;;7.40;5.50;;;;;;;3.00;69.90;97400.91;108790;1251;107561;-72
2023/05/11 03:42:38;;;;;;;9.20;5.70;;;;;;;2.99;70.01;97401.53;108435;1251;94279;-72
2023/05/11 03:45:09;;;;;;;7.90;5.60;;;;;;;2.95;70.01;97401.63;108804;1251;94339;-75
2023/05/11 03:47:41;;;;;;;10.10;6.50;;;;;;;2.93;69.99;97405.44;108823;1251;102525;-75
2023/05/11 03:50:10;;;;;;;16.70;7.80;;;;;;;2.91;70.20;97404.67;108807;1251;101390;-70
2023/05/11 03:52:40;;;;;;;17.10;7.80;;;;;;;2.94;70.34;97403.81;108660;1251;99719;-72
2023/05/11 03:55:09;;;;;;;15.50;7.40;;;;;;;3.01;70.44;97406.67;108789;1251;94466;-72
2023/05/11 03:57:37;;;;;;;13.90;6.70;;;;;;;3.07;70.37;97407.44;108603;1251;95205;-72
2023/05/11 04:00:06;;;;;;;10.30;6.00;;;;;;;3.11;70.42;97405.59;108792;1251;102273;-72
2023/05/11 04:02:35;;;;;;;10.00;6.90;;;;;;;3.13;70.43;97408.20;108802;1251;101357;-72
2023/05/11 04:05:09;;;;;;;16.40;7.50;;;;;;;3.15;70.50;97409.25;108669;1251;100311;-72
2023/05/11 04:07:38;;;;;;;15.60;8.20;;;;;;;3.16;70.60;97407.29;108818;1251;94255;-72
2023/05/11 04:10:07;;;;;;;18.80;10.00;;;;;;;3.20;70.58;97410.42;108792;1251;94577;-75
2023/05/11 04:12:35;;;;;;;13.40;9.10;;;;;;;3.24;70.54;97410.07;108807;1250;101779;-75
2023/05/11 04:15:04;;;;;;;16.80;9.10;;;;;;;3.30;70.66;97411.00;108828;1251;101601;-76
2023/05/11 04:17:32;;;;;;;22.00;9.40;;;;;;;3.37;70.82;97409.14;108542;1251;99134;-72
2023/05/11 04:20:00;;;;;;;24.90;10.50;;;;;;;3.43;70.93;97410.97;108630;1251;94268;-75
2023/05/11 04:22:28;;;;;;;22.30;10.30;;;;;;;3.48;70.88;97408.48;108482;1251;95111;-71
2023/05/11 04:24:57;;;;;;;22.30;11.20;;;;;;;3.54;70.91;97407.34;108773;1251;101878;-73
2023/05/11 04:27:24;;;;;;;16.20;11.20;;;;;;;3.60;71.02;97406.60;108831;1250;101248;-73
2023/05/11 04:29:53;;;;;;;14.60;9.10;;;;;;;3.67;71.09;97403.23;108827;1251;100064;-73
2023/05/11 04:32:21;;;;;;;18.40;8.90;;;;;;;3.72;71.12;97403.13;108801;1251;94141;-72
2023/05/11 04:34:49;;;;;;;12.90;7.70;;;;;;;3.77;71.24;97406.15;108694;1251;94669;-72
2023/05/11 04:37:17;;;;;;;15.30;8.00;;;;;;;3.82;71.18;97404.89;108803;1251;102201;-72
2023/05/11 04:39:45;;;;;;;14.30;8.40;;;;;;;3.88;71.16;97404.70;108800;1252;101510;-74
2023/05/11 04:42:13;;;;;;;11.50;8.30;;;;;;;3.96;71.16;97402.98;108748;1251;100120;-75
2023/05/11 04:44:41;;;;;;;10.90;8.60;;;;;;;4.04;71.14;97402.30;108797;1251;94272;-72
2023/05/11 04:47:09;;;;;;;16.00;9.00;;;;;;;4.10;71.25;97398.20;108802;1250;94567;-72
2023/05/11 04:49:38;;;;;;;17.40;9.00;;;;;;;4.16;71.35;97395.45;108799;1251;102438;-72
2023/05/11 04:52:06;;;;;;;14.70;9.80;;;;;;;4.21;71.35;97395.61;108788;1251;99907;-72
2023/05/11 04:54:35;;;;;;;17.30;9.60;;;;;;;4.27;71.49;97396.69;108763;1251;99033;-75
2023/05/11 04:57:03;;;;;;;14.40;9.60;;;;;;;4.32;71.49;97396.24;108828;1251;94211;-72
2023/05/11 04:59:32;;;;;;;21.40;9.90;;;;;;;4.40;71.45;97397.29;108621;1251;94412;-73
2023/05/11 05:02:00;;;;;;;16.50;10.30;;;;;;;4.49;71.59;97397.51;108627;1253;102283;-70
2023/05/11 05:04:28;;;;;;;14.30;9.30;;;;;;;4.59;71.64;97399.58;108889;1250;101246;-72
2023/05/11 05:06:56;;;;;;;18.50;10.40;;;;;;;4.67;71.74;97401.18;108780;1250;100314;-72
2023/05/11 05:09:24;;;;;;;19.30;10.40;;;;;;;4.76;71.90;97403.78;108781;1251;94547;-73
2023/05/11 05:11:52;;;;;;;12.90;9.40;;;;;;;4.85;71.98;97401.70;108787;1251;94550;-73
2023/05/11 05:14:20;;;;;;;14.40;8.70;;;;;;;4.93;72.00;97399.56;108805;1251;101366;-72
2023/05/11 05:16:48;;;;;;;14.20;9.00;;;;;;;5.03;72.02;97397.88;108833;1251;109809;-72
2023/05/11 05:19:16;;;;;;;15.70;8.50;;;;;;;5.13;72.20;97395.34;108634;1251;99611;-72
2023/05/11 05:21:44;;;;;;;11.70;8.70;;;;;;;5.22;72.20;97394.60;108809;1251;94282;-72
2023/05/11 05:24:12;;;;;;;14.10;9.10;;;;;;;5.32;72.31;97394.69;108799;1250;95091;-73
2023/05/11 05:26:40;;;;;;;11.90;8.60;;;;;;;5.42;72.25;97395.31;108823;1251;102111;-72
2023/05/11 05:29:08;;;;;;;14.00;8.70;;;;;;;5.53;72.27;97391.63;108828;1251;101522;-72
2023/05/11 05:31:36;;;;;;;12.40;7.30;;;;;;;5.63;72.32;97391.77;108825;1251;100048;-72
2023/05/11 05:34:05;;;;;;;9.70;7.40;;;;;;;5.74;72.19;97390.84;108619;1251;94584;-74
2023/05/11 05:36:33;;;;;;;13.00;7.10;;;;;;;5.87;72.01;97393.27;108818;1251;94621;-72
2023/05/11 05:39:02;;;;;;;14.20;7.20;;;;;;;5.98;71.88;97389.02;108832;1251;102308;-74
2023/05/11 05:41:30;;;;;;;8.80;6.50;;;;;;;6.09;71.68;97388.58;108859;1251;101174;-73
2023/05/11 05:43:58;;;;;;;10.30;6.60;;;;;;;6.23;71.52;97386.41;108850;1251;99064;-73
2023/05/11 05:46:27;;;;;;;10.60;6.50;;;;;;;6.37;71.47;97385.05;108470;1251;94680;-72
2023/05/11 05:48:55;;;;;;;12.20;7.40;;;;;;;6.49;71.44;97384.80;108845;1251;94547;-72
2023/05/11 05:51:24;;;;;;;11.10;6.10;;;;;;;6.62;71.52;97386.09;108826;1251;102449;-72
2023/05/11 05:53:52;;;;;;;7.50;5.70;;;;;;;6.77;71.53;97382.11;108635;1251;102453;-75
2023/05/11 05:56:20;;;;;;;8.50;5.00;;;;;;;6.92;71.40;97378.45;108801;1251;99587;-77
2023/05/11 05:58:48;;;;;;;5.10;4.20;;;;;;;7.07;71.14;97378.08;108809;1251;94306;-76
2023/05/11 06:01:16;;;;;;;8.20;5.00;;;;;;;7.22;70.91;97377.73;108797;1251;95066;-72
2023/05/11 06:03:44;;;;;;;7.30;5.00;;;;;;;7.35;70.55;97376.42;108594;1250;102266;-71
2023/05/11 06:06:12;;;;;;;9.10;5.50;;;;;;;7.48;70.19;97376.23;108487;1251;100885;-72
2023/05/11 06:08:42;;;;;;;7.90;5.50;;;;;;;7.59;69.83;97376.98;108786;1250;99471;-72
2023/05/11 06:11:10;;;;;;;8.20;5.30;;;;;;;7.71;69.41;97375.92;108797;1251;94275;-72
2023/05/11 06:13:38;;;;;;;9.00;4.70;;;;;;;7.82;69.09;97372.83;108838;1251;94429;-74
2023/05/11 06:16:06;;;;;;;7.50;5.10;;;;;;;7.97;68.87;97370.21;108867;1251;102224;-76
2023/05/11 06:18:34;;;;;;;5.00;4.40;;;;;;;8.14;68.54;97366.33;108828;1251;100417;-73
2023/05/11 06:21:03;;;;;;;9.40;5.60;;;;;;;8.31;68.30;97365.63;108807;1251;99811;-72
2023/05/11 06:23:31;;;;;;;7.30;5.10;;;;;;;8.44;67.87;97366.08;108850;1251;94247;-72
2023/05/11 06:25:59;;;;;;;14.60;7.70;;;;;;;8.57;67.54;97366.23;108810;1251;94346;-72
2023/05/11 06:28:28;;;;;;;11.60;6.40;;;;;;;8.70;67.44;97368.11;108804;1251;102260;-72
2023/05/11 06:30:58;;;;;;;9.50;6.00;;;;;;;8.86;67.24;97365.45;108803;1251;101485;-72
2023/05/11 06:33:26;;;;;;;11.30;6.20;;;;;;;9.01;66.91;97364.51;108809;1251;100102;-72
2023/05/11 06:35:54;;;;;;;10.50;5.00;;;;;;;9.21;66.84;97360.61;108810;1250;94260;-72
2023/05/11 06:38:22;;;;;;;7.80;4.90;;;;;;;9.42;66.55;97364.64;108776;1251;94608;-71
2023/05/11 06:40:53;;;;;;;12.20;4.70;;;;;;;9.55;66.07;97364.40;108818;1251;102068;-74
2023/05/11 06:43:22;;;;;;;5.80;4.30;;;;;;;9.69;65.90;97361.10;108837;1251;101165;-75
2023/05/11 06:45:50;;;;;;;9.30;4.60;;;;;;;9.88;65.96;97356.46;108780;1251;99877;-72
2023/05/11 06:48:18;;;;;;;6.60;4.10;;;;;;;10.05;65.67;97355.52;108769;1251;94232;-72
2023/05/11 06:50:46;;;;;;;7.50;4.20;;;;;;;10.21;65.35;97353.00;108848;1251;95130;-72
2023/05/11 06:53:15;;;;;;;4.20;3.30;;;;;;;10.38;64.63;97348.95;108370;1250;101193;-74
2023/05/11 06:55:44;;;;;;;6.10;3.60;;;;;;;10.54;64.00;97350.73;108611;1251;101233;-74
2023/05/11 06:58:13;;;;;;;7.90;3.50;;;;;;;10.67;63.55;97349.58;108812;1250;99811;-71
2023/05/11 07:00:41;;;;;;;7.10;3.70;;;;;;;10.81;63.07;97342.63;108819;1251;94215;-72
2023/05/11 07:03:09;;;;;;;7.20;3.70;;;;;;;10.96;62.64;97339.06;108845;1251;94659;-72
2023/05/11 07:05:38;;;;;;;4.70;3.50;;;;;;;11.12;62.44;97338.59;108841;1251;101379;-75
2023/05/11 07:08:06;;;;;;;5.30;3.70;;;;;;;11.27;61.97;97337.98;108848;1251;100345;-72
2023/05/11 07:10:34;;;;;;;10.40;4.10;;;;;;;11.42;61.66;97336.14;108833;1251;99014;-72
2023/05/11 07:13:02;;;;;;;6.00;3.90;;;;;;;11.58;61.49;97335.44;108845;1251;94235;-73
2023/05/11 07:15:30;;;;;;;4.50;3.80;;;;;;;11.74;61.43;97329.29;108821;1251;94672;-75
2023/05/11 07:18:00;;;;;;;8.60;3.60;;;;;;;11.91;60.64;97325.80;108832;1251;102311;-73
2023/05/11 07:20:28;;;;;;;6.30;3.40;;;;;;;12.08;59.99;97323.85;108845;1250;100269;-74
2023/05/11 07:22:58;;;;;;;4.40;3.60;;;;;;;12.24;59.37;97319.16;108818;1251;99987;-71
2023/05/11 07:25:26;;;;;;;5.00;3.20;;;;;;;12.41;58.79;97317.40;108827;1251;94224;-75
2023/05/11 07:27:54;;;;;;;4.50;2.30;;;;;;;12.58;58.08;97313.23;108632;1251;94673;-72
2023/05/11 07:30:23;;;;;;;3.40;2.80;;;;;;;12.78;57.63;97311.13;108853;1251;101178;-74
2023/05/11 07:32:51;;;;;;;3.40;2.10;;;;;;;13.10;57.40;97308.43;108511;1252;101086;-74
2023/05/11 07:35:19;;;;;;;2.40;2.10;;;;;;;13.56;56.47;97308.52;108461;1251;100388;-77
2023/05/11 07:37:47;;;;;;;3.10;2.00;;;;;;;14.16;55.29;97303.41;108764;1251;94192;-77
2023/05/11 07:40:15;;;;;;;2.60;2.00;;;;;;;14.79;54.34;97306.04;108607;1252;94380;-76
2023/05/11 07:42:43;;;;;;;3.00;2.40;;;;;;;15.38;52.50;97307.62;108627;1251;102334;-73
2023/05/11 07:45:12;;;;;;;7.90;2.20;;;;;;;15.95;51.59;97307.54;108889;1250;101606;-73
2023/05/11 07:47:40;;;;;;;4.20;2.00;;;;;;;16.49;50.39;97304.48;108808;1251;100119;-72
2023/05/11 07:50:08;;;;;;;2.00;1.80;;;;;;;17.04;49.95;97306.15;108714;1250;94495;-73
2023/05/11 07:52:37;;;;;;;3.00;1.70;;;;;;;17.52;48.66;97302.54;108637;1252;94607;-74
2023/05/11 07:55:05;;;;;;;4.80;1.80;;;;;;;17.97;47.76;97302.73;108851;1250;102166;-73
2023/05/11 07:57:34;;;;;;;2.00;1.80;;;;;;;18.46;47.30;97302.17;108714;1251;101295;-73
2023/05/11 08:00:02;;;;;;;4.60;1.80;;;;;;;18.91;45.73;97301.78;108817;1251;100171;-73
2023/05/11 08:02:30;;;;;;;5.40;1.90;;;;;;;19.34;45.99;97305.71;108798;1251;94211;-73
2023/05/11 08:04:58;;;;;;;2.50;1.80;;;;;;;19.81;44.89;97302.09;108833;1251;94250;-72
2023/05/11 08:07:26;;;;;;;2.20;2.00;;;;;;;20.16;43.62;97301.92;108847;1251;102168;-72
2023/05/11 08:09:54;;;;;;;2.10;1.80;;;;;;;20.54;42.99;97301.96;108842;1251;100091;-76
2023/05/11 08:12:22;;;;;;;2.70;1.70;;;;;;;20.83;42.03;97301.88;108787;1251;100136;-72
2023/05/11 08:14:50;;;;;;;2.80;1.50;;;;;;;21.12;40.94;97300.96;108839;1251;94270;-73
2023/05/11 08:17:19;;;;;;;2.30;1.50;;;;;;;21.47;40.26;97297.83;108874;1251;94344;-73
2023/05/11 08:19:47;;;;;;;3.20;1.90;;;;;;;21.82;39.51;97293.14;108882;1251;102299;-75
2023/05/11 08:22:15;;;;;;;2.20;1.70;;;;;;;22.14;38.40;97291.17;108852;1251;101354;-73
2023/05/11 08:24:43;;;;;;;1.50;1.40;;;;;;;22.44;38.00;97288.24;108804;1251;98876;-74
2023/05/11 08:27:11;;;;;;;1.60;1.50;;;;;;;22.71;37.16;97289.30;108822;1251;94215;-73
2023/05/11 08:29:39;;;;;;;1.70;1.40;;;;;;;23.04;36.24;97287.44;108507;1257;94357;-72
2023/05/11 08:32:07;;;;;;;1.90;1.60;;;;;;;23.35;36.00;97282.98;108593;1250;102395;-74
2023/05/11 08:34:36;;;;;;;1.90;1.60;;;;;;;23.63;35.00;97278.96;108899;1250;101476;-73
2023/05/11 08:37:04;;;;;;;2.30;1.30;;;;;;;24.03;35.10;97277.51;108845;1251;99626;-73
2023/05/11 08:39:36;;;;;;;3.00;1.50;;;;;;;24.44;34.61;97273.67;108728;1251;94643;-73
2023/05/11 08:42:06;;;;;;;1.80;1.50;;;;;;;24.84;34.49;97269.27;108648;1251;94436;-73
2023/05/11 08:44:36;;;;;;;4.20;1.60;;;;;;;25.27;33.94;97272.11;108631;1251;102337;-74
2023/05/11 08:47:05;;;;;;;2.70;1.60;;;;;;;25.62;33.67;97274.83;108860;1250;101329;-74
2023/05/11 08:49:35;;;;;;;2.90;1.60;;;;;;;25.88;32.52;97273.64;108825;1251;99678;-76
2023/05/11 08:52:05;;;;;;;2.20;1.70;;;;;;;26.04;32.12;97270.40;108831;1251;94421;-73
2023/05/11 08:54:34;;;;;;;3.70;1.70;;;;;;;25.82;31.54;97273.23;108747;1251;94484;-72
2023/05/11 08:57:05;;;;;;;2.10;1.60;;;;;;;25.86;31.58;97273.78;108880;1251;102321;-73
2023/05/11 08:59:33;;;;;;;3.80;1.80;;;;;;;26.10;31.02;97270.43;108622;1251;100465;-72
2023/05/11 09:02:04;;;;;;;4.50;1.70;;;;;;;26.17;30.84;97273.20;108664;1250;202586;-75
2023/05/11 09:04:34;;;;;;;2.50;1.60;;;;;;;26.29;30.07;97273.53;108814;1251;94658;-72
2023/05/11 09:07:02;;;;;;;2.40;1.80;;;;;;;26.22;29.27;97275.29;108830;1251;94658;-72
2023/05/11 09:09:31;;;;;;;4.30;1.80;;;;;;;26.28;29.29;97274.05;108886;1251;102270;-72
2023/05/11 09:12:00;;;;;;;2.10;1.50;;;;;;;26.36;28.68;97263.66;108836;1251;101565;-72
2023/05/11 09:14:29;;;;;;;3.10;1.50;;;;;;;26.52;28.96;97260.85;108871;1251;99879;-72
2023/05/11 09:16:57;;;;;;;3.60;1.80;;;;;;;26.78;28.84;97265.16;108341;1258;94319;-74
2023/05/11 09:19:25;;;;;;;1.40;1.30;;;;;;;27.00;28.72;97260.73;108881;1251;94371;-75
2023/05/11 09:21:54;;;;;;;3.00;1.60;;;;;;;27.14;28.83;97265.07;108882;1250;102232;-73
2023/05/11 09:24:22;;;;;;;2.90;1.40;;;;;;;27.27;28.52;97267.13;108827;1251;111496;-72
2023/05/11 09:27:05;;;;;;;2.20;1.40;;;;;;;27.34;28.02;97264.27;108852;1251;100335;-73
2023/05/11 09:29:34;;;;;;;5.00;1.80;;;;;;;27.42;27.80;97265.45;108851;1252;94492;-72
2023/05/11 09:32:02;;;;;;;3.70;1.30;;;;;;;27.42;26.85;97268.56;108517;1251;94467;-73
2023/05/11 09:34:30;;;;;;;4.60;1.50;;;;;;;27.20;26.92;97268.27;108767;1251;102185;-72
2023/05/11 09:36:58;;;;;;;4.80;1.60;;;;;;;27.12;26.95;97265.13;108849;1251;100139;-74
2023/05/11 09:39:36;;;;;;;2.00;1.50;;;;;;;27.11;27.00;97261.35;108779;1251;99427;-72
2023/05/11 09:42:18;;;;;;;3.20;1.50;;;;;;;27.18;27.07;97260.75;108406;1256;94294;-72
2023/05/11 09:44:47;;;;;;;6.50;1.70;;;;;;;27.17;27.05;97259.93;108475;1256;94669;-71
2023/05/11 09:47:17;;;;;;;1.80;1.40;;;;;;;26.97;26.72;97259.64;108426;1256;102387;-74
2023/05/11 09:49:47;;;;;;;3.90;1.60;;;;;;;26.97;26.42;97259.77;108435;1255;101615;-71
2023/05/11 09:52:19;;;;;;;1.70;1.60;;;;;;;26.94;26.30;97257.66;108409;1256;99937;-71
2023/05/11 09:54:51;;;;;;;2.50;1.70;;;;;;;26.91;26.73;97252.98;108440;1255;94987;-70
2023/05/11 09:57:37;;;;;;;1.60;1.50;;;;;;;27.03;27.20;97241.25;108414;1256;94295;-74
2023/05/11 10:00:14;;;;;;;2.70;1.30;;;;;;;27.17;27.13;97249.70;108434;1256;110894;-75
2023/05/11 10:02:42;;;;;;;1.90;1.10;;;;;;;27.11;26.49;97246.81;108196;1256;101266;-71
2023/05/11 10:05:12;;;;;;;2.20;1.40;;;;;;;26.96;25.80;97236.94;108265;1256;100204;-71
2023/05/11 10:07:41;;;;;;;3.70;1.80;;;;;;;26.94;25.87;97243.81;108395;1256;94629;-73
2023/05/11 10:10:10;;;;;;;1.80;1.60;;;;;;;27.01;26.06;97241.41;108320;1256;94696;-71
2023/05/11 10:12:39;;;;;;;1.40;1.30;;;;;;;27.09;25.56;97230.60;108382;1251;102180;-72
2023/05/11 10:15:09;;;;;;;1.30;1.20;;;;;;;27.01;24.50;97226.77;108839;1251;101550;-71
2023/05/11 10:17:38;;;;;;;3.10;1.60;;;;;;;26.92;24.84;97224.16;108791;1251;99915;-74
2023/05/11 10:20:06;;;;;;;1.70;1.30;;;;;;;26.82;25.18;97229.13;108826;1251;94530;-73
2023/05/11 10:22:35;;;;;;;2.40;1.60;;;;;;;26.81;25.56;97227.42;108480;1251;95386;-71
2023/05/11 10:25:05;;;;;;;1.60;1.50;;;;;;;26.96;25.65;97225.84;108836;1251;101895;-71
2023/05/11 10:27:34;;;;;;;3.50;1.60;;;;;;;26.94;25.14;97221.52;108871;1250;101356;-71
2023/05/11 10:30:02;;;;;;;3.60;1.40;;;;;;;26.93;24.90;97218.49;108866;1251;100038;-72
2023/05/11 10:32:31;;;;;;;1.80;1.40;;;;;;;26.72;24.53;97217.55;108818;1251;94451;-73
2023/05/11 10:35:00;;;;;;;2.10;1.30;;;;;;;26.66;24.62;97217.24;108853;1251;94599;-75
2023/05/11 10:37:29;;;;;;;1.30;1.20;;;;;;;26.74;24.73;97215.73;108842;1250;102143;-76
2023/05/11 10:39:57;;;;;;;2.40;1.40;;;;;;;26.80;24.85;97213.29;108886;1251;101514;-74
2023/05/11 10:42:37;;;;;;;1.70;1.60;;;;;;;26.99;25.18;97212.23;108842;1250;99907;-73
2023/05/11 10:45:17;;;;;;;9.70;8.40;;;;;;;27.16;24.81;97210.08;108789;1251;94339;-73
2023/05/11 10:48:16;;;;;;;4.60;3.30;;;;;;;27.27;25.07;97205.52;108834;1251;94544;-72
2023/05/11 10:51:04;;;;;;;3.30;1.70;;;;;;;27.26;24.68;97204.05;108862;1251;101863;-71
2023/05/11 10:53:50;;;;;;;7.50;5.50;;;;;;;27.15;24.24;97202.92;108844;1251;101337;-74
2023/05/11 10:56:53;;;;;;;5.80;3.10;;;;;;;27.12;24.97;97201.33;108816;1251;98843;-72
2023/05/11 10:59:45;;;;;;;4.70;3.10;;;;;;;27.15;24.65;97196.89;108791;1251;94412;-71
2023/05/11 11:02:13;;;;;;;2.40;2.00;;;;;;;27.05;24.70;97195.27;108849;1251;94199;-72
2023/05/11 11:04:49;;;;;;;3.40;1.80;;;;;;;27.12;24.35;97191.34;108849;1253;102467;-72
2023/05/11 11:07:19;;;;;;;3.10;1.50;;;;;;;27.11;24.21;97190.33;108665;1251;101507;-72
2023/05/11 11:10:04;;;;;;;1.50;1.40;;;;;;;27.08;24.40;97191.71;108800;1251;99873;-72
2023/05/11 11:12:33;;;;;;;1.90;1.70;;;;;;;27.05;24.21;97182.69;108831;1253;94528;-72
2023/05/11 11:15:07;;;;;;;5.10;2.10;;;;;;;26.97;24.01;97186.84;108482;1253;94555;-72
2023/05/11 11:17:36;;;;;;;5.40;1.40;;;;;;;26.81;23.94;97191.44;108529;1251;101257;-73
2023/05/11 11:20:07;;;;;;;4.60;1.70;;;;;;;26.78;24.03;97184.68;108832;1250;101420;-72
2023/05/11 11:22:35;;;;;;;3.60;1.80;;;;;;;26.80;23.95;97184.23;108878;1251;101164;-77
2023/05/11 11:25:13;;;;;;;2.10;1.80;;;;;;;26.77;23.97;97185.70;108767;1251;94492;-74
2023/05/11 11:27:41;;;;;;;2.90;1.60;;;;;;;26.70;24.34;97183.67;108855;1250;94355;-75
2023/05/11 11:30:29;;;;;;;1.80;1.40;;;;;;;26.74;24.11;97187.60;108885;1250;102051;-74
2023/05/11 11:33:09;;;;;;;2.90;1.30;;;;;;;26.69;23.66;97183.77;108520;1253;101052;-75
2023/05/11 11:35:40;;;;;;;4.70;1.60;;;;;;;26.65;23.98;97179.45;108833;1251;100307;-75